PWSweather.com
Personal Weather Stations
Station Observations
IPODRAVI2
Croatia, Trnovec BartoloveckiHR

CroatiaTrnovec BartoloveckiHR

Lat: 46.2947, Lon: 16.3989

Elevation: 535

Station Type: Davis Vantage Pro2 plus

http://www.pljusak.com/trnovec1/wx.html

High Low Average
Temperature 58.3°F14.6°F 56.1°F13.4°F 57.2°F14.0°F
Dew Point 56.8°F13.8°F 54.0°F12.2°F 55.6°F13.1°F
Winds 7.6 mph NW12.2 mph NW Calm Calm 2.3 mph 3.7 mph
Wind Gusts 11.0 mph17.7 mph -- 4.3 mph6.9 mph
Humidity 96% 89% 94%
Pressure 29.99 in1015.60 in 29.89 in1012.20 in -
Precipitation 2.25 in57.20 in - -
Hour Temp Dew Point Humidity Winds Wind Gusts Pressure Precip Precip Rate Daily Precip Total
12:30 AM 58.0°F14.4°C 55.4°F13.0°C 91% 4.7 mph NNW7.6 kmh NNW 8.0 mph12.9 kmh 29.90 in1012.5 mb 0.00 in0.0 mm 0.00 in/hr0.0 mm/hr 0.13 in3.3 mm
12:50 AM 58.0°F14.4°C 55.4°F13.0°C 91% 1.8 mph NNW2.9 kmh NNW 4.0 mph6.4 kmh 29.89 in1012.2 mb 0.00 in0.0 mm 0.00 in/hr0.0 mm/hr 0.13 in3.3 mm
01:00 AM 58.0°F14.4°C 55.4°F13.0°C 91% 2.4 mph NNW3.9 kmh NNW 5.0 mph8.0 kmh 29.89 in1012.2 mb 0.00 in0.0 mm 0.00 in/hr0.0 mm/hr 0.13 in3.3 mm
01:10 AM 58.0°F14.4°C 55.4°F13.0°C 91% 0.6 mph NNW1.0 kmh NNW 3.0 mph4.8 kmh 29.90 in1012.5 mb 0.00 in0.0 mm 0.00 in/hr0.0 mm/hr 0.13 in3.3 mm
01:20 AM 58.1°F14.5°C 55.5°F13.1°C 91% 0.1 mph NNW0.2 kmh NNW 1.0 mph1.6 kmh 29.90 in1012.5 mb 0.00 in0.0 mm 0.00 in/hr0.0 mm/hr 0.13 in3.3 mm
01:30 AM 57.8°F14.3°C 55.5°F13.1°C 92% 0.1 mph NNW0.2 kmh NNW -- 29.90 in1012.5 mb 0.00 in0.0 mm 0.00 in/hr0.0 mm/hr 0.13 in3.3 mm
01:40 AM 57.7°F14.3°C 55.3°F12.9°C 92% 2.9 mph NW4.7 kmh NW 5.0 mph8.0 kmh 29.89 in1012.2 mb 0.00 in0.0 mm 0.00 in/hr0.0 mm/hr 0.13 in3.3 mm
01:50 AM 57.8°F14.3°C 55.2°F12.9°C 91% 1.8 mph NW2.9 kmh NW 3.0 mph4.8 kmh 29.89 in1012.2 mb 0.00 in0.0 mm 0.00 in/hr0.0 mm/hr 0.13 in3.3 mm
02:00 AM 57.9°F14.4°C 55.0°F12.8°C 90% 0.7 mph NNW1.1 kmh NNW 1.0 mph1.6 kmh 29.89 in1012.2 mb 0.00 in0.0 mm 0.00 in/hr0.0 mm/hr 0.13 in3.3 mm
02:10 AM 58.2°F14.6°C 55.0°F12.8°C 89% 0.2 mph NNW0.3 kmh NNW 2.0 mph3.2 kmh 29.89 in1012.2 mb 0.00 in0.0 mm 0.00 in/hr0.0 mm/hr 0.13 in3.3 mm
02:20 AM 58.3°F14.6°C 55.4°F13.0°C 90% 2.1 mph N3.4 kmh N 5.0 mph8.0 kmh 29.89 in1012.2 mb 0.00 in0.0 mm 0.00 in/hr0.0 mm/hr 0.13 in3.3 mm
02:50 AM 58.2°F14.6°C 55.3°F12.9°C 90% 0.1 mph NE0.2 kmh NE -- 29.91 in1012.9 mb 0.02 in0.5 mm 0.04 in/hr1.0 mm/hr 0.15 in3.8 mm
03:10 AM 57.8°F14.3°C 55.5°F13.1°C 92% Calm Calm -- 29.91 in1012.9 mb 0.07 in1.8 mm 0.11 in/hr2.8 mm/hr 0.22 in5.6 mm
03:20 AM 57.4°F14.1°C 55.1°F12.8°C 92% 2.2 mph N3.5 kmh N 3.0 mph4.8 kmh 29.89 in1012.2 mb 0.05 in1.3 mm 0.30 in/hr7.6 mm/hr 0.26 in6.6 mm
03:30 AM 57.2°F14.0°C 55.2°F12.9°C 93% 1.4 mph N2.3 kmh N 4.0 mph6.4 kmh 29.90 in1012.5 mb 0.04 in1.0 mm 0.24 in/hr6.1 mm/hr 0.30 in7.6 mm
03:40 AM 57.1°F13.9°C 55.1°F12.8°C 93% Calm Calm -- 29.90 in1012.5 mb 0.02 in0.5 mm 0.12 in/hr3.0 mm/hr 0.32 in8.1 mm
03:50 AM 56.9°F13.8°C 54.9°F12.7°C 93% 0.2 mph N0.3 kmh N 2.0 mph3.2 kmh 29.90 in1012.5 mb 0.03 in0.8 mm 0.18 in/hr4.6 mm/hr 0.35 in8.9 mm
04:00 AM 56.8°F13.8°C 54.8°F12.7°C 93% 2.0 mph N3.2 kmh N 3.0 mph4.8 kmh 29.90 in1012.5 mb 0.02 in0.5 mm 0.02 in/hr0.5 mm/hr 0.37 in9.4 mm
04:10 AM 56.7°F13.7°C 54.7°F12.6°C 93% 2.3 mph N3.7 kmh N 3.0 mph4.8 kmh 29.90 in1012.5 mb 0.02 in0.5 mm 0.12 in/hr3.0 mm/hr 0.39 in9.9 mm
04:30 AM 56.6°F13.7°C 54.6°F12.6°C 93% 0.7 mph N1.1 kmh N 2.0 mph3.2 kmh 29.90 in1012.5 mb 0.07 in1.8 mm 0.21 in/hr5.3 mm/hr 0.45 in11.4 mm
04:40 AM 56.6°F13.7°C 54.6°F12.6°C 93% 1.9 mph N3.1 kmh N 3.0 mph4.8 kmh 29.90 in1012.5 mb 0.02 in0.5 mm 0.12 in/hr3.0 mm/hr 0.47 in11.9 mm
04:50 AM 56.6°F13.7°C 54.6°F12.6°C 93% 3.5 mph N5.6 kmh N 5.0 mph8.0 kmh 29.89 in1012.2 mb 0.01 in0.3 mm 0.06 in/hr1.5 mm/hr 0.47 in11.9 mm
05:00 AM 56.5°F13.6°C 54.5°F12.5°C 93% 4.4 mph N7.1 kmh N 6.0 mph9.7 kmh 29.89 in1012.2 mb 0.02 in0.5 mm 0.02 in/hr0.5 mm/hr 0.49 in12.4 mm
05:10 AM 56.5°F13.6°C 54.5°F12.5°C 93% 2.5 mph NNE4.0 kmh NNE 3.0 mph4.8 kmh 29.90 in1012.5 mb 0.02 in0.5 mm 0.12 in/hr3.0 mm/hr 0.50 in12.7 mm
05:20 AM 56.4°F13.6°C 54.4°F12.4°C 93% 0.7 mph N1.1 kmh N 2.0 mph3.2 kmh 29.90 in1012.5 mb 0.02 in0.5 mm 0.12 in/hr3.0 mm/hr 0.51 in13.0 mm
05:30 AM 56.3°F13.5°C 54.0°F12.2°C 92% 0.3 mph N0.5 kmh N 2.0 mph3.2 kmh 29.91 in1012.9 mb 0.02 in0.5 mm 0.12 in/hr3.0 mm/hr 0.53 in13.5 mm
05:41 AM 56.3°F13.5°C 54.3°F12.4°C 93% 0.4 mph NNW0.6 kmh NNW 3.0 mph4.8 kmh 29.91 in1012.9 mb 0.04 in1.0 mm 0.22 in/hr5.6 mm/hr 0.57 in14.5 mm
05:51 AM 56.2°F13.4°C 54.2°F12.3°C 93% 1.6 mph N2.6 kmh N 3.0 mph4.8 kmh 29.91 in1012.9 mb 0.04 in1.0 mm 0.24 in/hr6.1 mm/hr 0.60 in15.2 mm
06:01 AM 56.1°F13.4°C 54.1°F12.3°C 93% 1.9 mph N3.1 kmh N 5.0 mph8.0 kmh 29.91 in1012.9 mb 0.03 in0.8 mm 0.04 in/hr1.0 mm/hr 0.62 in15.7 mm
06:10 AM 56.1°F13.4°C 54.1°F12.3°C 93% 0.9 mph N1.4 kmh N 4.0 mph6.4 kmh 29.91 in1012.9 mb 0.02 in0.5 mm 0.13 in/hr3.3 mm/hr 0.64 in16.3 mm
06:21 AM 56.1°F13.4°C 54.1°F12.3°C 93% 3.1 mph N5.0 kmh N 4.0 mph6.4 kmh 29.91 in1012.9 mb 0.02 in0.5 mm 0.11 in/hr2.8 mm/hr 0.65 in16.5 mm
06:31 AM 56.1°F13.4°C 54.1°F12.3°C 93% 1.6 mph N2.6 kmh N 3.0 mph4.8 kmh 29.91 in1012.9 mb 0.02 in0.5 mm 0.12 in/hr3.0 mm/hr 0.67 in17.0 mm
06:40 AM 56.1°F13.4°C 54.4°F12.4°C 94% 1.7 mph NNW2.7 kmh NNW 2.0 mph3.2 kmh 29.91 in1012.9 mb 0.00 in0.0 mm 0.00 in/hr0.0 mm/hr 0.67 in17.0 mm
06:51 AM 56.1°F13.4°C 54.4°F12.4°C 94% 0.7 mph NNW1.1 kmh NNW 1.0 mph1.6 kmh 29.92 in1013.2 mb 0.02 in0.5 mm 0.11 in/hr2.8 mm/hr 0.69 in17.5 mm
07:01 AM 56.2°F13.4°C 54.2°F12.3°C 93% 0.5 mph N0.8 kmh N 3.0 mph4.8 kmh 29.92 in1013.2 mb 0.02 in0.5 mm 0.02 in/hr0.5 mm/hr 0.69 in17.5 mm
07:10 AM 56.2°F13.4°C 54.2°F12.3°C 93% 1.3 mph NNW2.1 kmh NNW 3.0 mph4.8 kmh 29.92 in1013.2 mb 0.02 in0.5 mm 0.13 in/hr3.3 mm/hr 0.70 in17.8 mm
07:20 AM 56.2°F13.4°C 54.2°F12.3°C 93% Calm Calm -- 29.93 in1013.5 mb 0.03 in0.8 mm 0.18 in/hr4.6 mm/hr 0.73 in18.5 mm
07:40 AM 56.2°F13.4°C 54.5°F12.5°C 94% 2.3 mph N3.7 kmh N 8.0 mph12.9 kmh 29.93 in1013.5 mb 0.06 in1.5 mm 0.18 in/hr4.6 mm/hr 0.80 in20.3 mm
07:50 AM 56.1°F13.4°C 54.4°F12.4°C 94% 1.7 mph NNE2.7 kmh NNE 4.0 mph6.4 kmh 29.93 in1013.5 mb 0.06 in1.5 mm 0.36 in/hr9.1 mm/hr 0.84 in21.3 mm
08:00 AM 56.1°F13.4°C 54.4°F12.4°C 94% 1.1 mph N1.8 kmh N 2.0 mph3.2 kmh 29.94 in1013.9 mb 0.02 in0.5 mm 0.02 in/hr0.5 mm/hr 0.86 in21.8 mm
08:10 AM 56.2°F13.4°C 54.8°F12.7°C 95% 4.6 mph N7.4 kmh N 5.0 mph8.0 kmh 29.93 in1013.5 mb 0.02 in0.5 mm 0.12 in/hr3.0 mm/hr 0.87 in22.1 mm
08:20 AM 56.3°F13.5°C 54.9°F12.7°C 95% 3.1 mph NNW5.0 kmh NNW 5.0 mph8.0 kmh 29.93 in1013.5 mb 0.00 in0.0 mm 0.00 in/hr0.0 mm/hr 0.87 in22.1 mm
08:40 AM 56.5°F13.6°C 54.8°F12.7°C 94% 2.1 mph N3.4 kmh N 5.0 mph8.0 kmh 29.94 in1013.9 mb 0.01 in0.3 mm 0.03 in/hr0.8 mm/hr 0.88 in22.4 mm
08:51 AM 56.7°F13.7°C 55.0°F12.8°C 94% 0.1 mph N0.2 kmh N 1.0 mph1.6 kmh 29.94 in1013.9 mb 0.01 in0.3 mm 0.05 in/hr1.3 mm/hr 0.89 in22.6 mm
09:01 AM 56.9°F13.8°C 55.2°F12.9°C 94% 1.0 mph NNW1.6 kmh NNW 8.0 mph12.9 kmh 29.94 in1013.9 mb 0.00 in0.0 mm 0.00 in/hr0.0 mm/hr 0.89 in22.6 mm
09:11 AM 57.0°F13.9°C 55.3°F12.9°C 94% 3.0 mph N4.8 kmh N 5.0 mph8.0 kmh 29.94 in1013.9 mb 0.00 in0.0 mm 0.00 in/hr0.0 mm/hr 0.89 in22.6 mm
09:20 AM 57.0°F13.9°C 55.3°F12.9°C 94% 2.4 mph N3.9 kmh N 4.0 mph6.4 kmh 29.94 in1013.9 mb 0.00 in0.0 mm 0.00 in/hr0.0 mm/hr 0.89 in22.6 mm
09:40 AM 57.1°F13.9°C 55.4°F13.0°C 94% 0.5 mph NNW0.8 kmh NNW 1.0 mph1.6 kmh 29.94 in1013.9 mb 0.02 in0.5 mm 0.06 in/hr1.5 mm/hr 0.91 in23.1 mm
09:50 AM 57.2°F14.0°C 55.5°F13.1°C 94% 3.3 mph NNW5.3 kmh NNW 9.0 mph14.5 kmh 29.95 in1014.2 mb 0.00 in0.0 mm 0.00 in/hr0.0 mm/hr 0.91 in23.1 mm
10:01 AM 57.3°F14.1°C 55.6°F13.1°C 94% 4.2 mph N6.8 kmh N 6.0 mph9.7 kmh 29.94 in1013.9 mb 0.00 in0.0 mm 0.00 in/hr0.0 mm/hr 0.91 in23.1 mm
10:10 AM 57.3°F14.1°C 55.6°F13.1°C 94% 3.1 mph N5.0 kmh N 4.0 mph6.4 kmh 29.95 in1014.2 mb 0.01 in0.3 mm 0.07 in/hr1.8 mm/hr 0.91 in23.1 mm
10:20 AM 57.3°F14.1°C 55.6°F13.1°C 94% 3.3 mph NNW5.3 kmh NNW 5.0 mph8.0 kmh 29.95 in1014.2 mb 0.01 in0.3 mm 0.06 in/hr1.5 mm/hr 0.92 in23.4 mm
10:31 AM 57.3°F14.1°C 55.6°F13.1°C 94% 0.9 mph NNW1.4 kmh NNW 1.0 mph1.6 kmh 29.95 in1014.2 mb 0.05 in1.3 mm 0.27 in/hr6.9 mm/hr 0.97 in24.6 mm
10:40 AM 57.3°F14.1°C 55.5°F13.1°C 94% 2.1 mph NNW3.4 kmh NNW 3.0 mph4.8 kmh 29.95 in1014.2 mb 0.02 in0.5 mm 0.13 in/hr3.3 mm/hr 0.98 in24.9 mm
10:50 AM 57.1°F13.9°C 55.4°F13.0°C 94% 2.6 mph NNW4.2 kmh NNW 3.0 mph4.8 kmh 29.95 in1014.2 mb 0.03 in0.8 mm 0.18 in/hr4.6 mm/hr 1.02 in25.9 mm
11:01 AM 57.2°F14.0°C 55.8°F13.2°C 95% 1.2 mph NNW1.9 kmh NNW 2.0 mph3.2 kmh 29.95 in1014.2 mb 0.05 in1.3 mm 0.06 in/hr1.5 mm/hr 1.06 in26.9 mm
11:11 AM 57.1°F13.9°C 55.7°F13.2°C 95% 4.7 mph NNW7.6 kmh NNW 8.0 mph12.9 kmh 29.95 in1014.2 mb 0.03 in0.8 mm 0.18 in/hr4.6 mm/hr 1.09 in27.7 mm
11:30 AM 57.1°F13.9°C 55.7°F13.2°C 95% 4.0 mph NW6.4 kmh NW 5.0 mph8.0 kmh 29.95 in1014.2 mb 0.02 in0.5 mm 0.06 in/hr1.5 mm/hr 1.09 in27.7 mm
11:40 AM 57.0°F13.9°C 55.3°F12.9°C 94% 1.8 mph NW2.9 kmh NW 7.0 mph11.3 kmh 29.95 in1014.2 mb 0.01 in0.3 mm 0.06 in/hr1.5 mm/hr 1.10 in27.9 mm
11:50 AM 57.0°F13.9°C 55.3°F12.9°C 94% 2.7 mph NW4.3 kmh NW 4.0 mph6.4 kmh 29.94 in1013.9 mb 0.00 in0.0 mm 0.00 in/hr0.0 mm/hr 1.11 in28.2 mm
12:00 PM 57.1°F13.9°C 55.6°F13.1°C 95% 0.2 mph NW0.3 kmh NW 6.0 mph9.7 kmh 29.95 in1014.2 mb 0.03 in0.8 mm 0.04 in/hr1.0 mm/hr 1.13 in28.7 mm
12:10 PM 57.1°F13.9°C 55.7°F13.2°C 95% 1.8 mph NW2.9 kmh NW 4.0 mph6.4 kmh 29.94 in1013.9 mb 0.01 in0.3 mm 0.06 in/hr1.5 mm/hr 1.14 in29.0 mm
12:20 PM 57.1°F13.9°C 55.7°F13.2°C 95% 1.4 mph NW2.3 kmh NW 6.0 mph9.7 kmh 29.94 in1013.9 mb 0.00 in0.0 mm 0.00 in/hr0.0 mm/hr 1.14 in29.0 mm
12:30 PM 57.1°F13.9°C 55.7°F13.2°C 95% 0.2 mph NW0.3 kmh NW 1.0 mph1.6 kmh 29.95 in1014.2 mb 0.02 in0.5 mm 0.12 in/hr3.0 mm/hr 1.16 in29.5 mm
12:40 PM 57.2°F14.0°C 55.8°F13.2°C 95% 0.8 mph NW1.3 kmh NW 3.0 mph4.8 kmh 29.95 in1014.2 mb 0.00 in0.0 mm 0.00 in/hr0.0 mm/hr 1.16 in29.5 mm
12:50 PM 57.2°F14.0°C 55.8°F13.2°C 95% Calm Calm 1.0 mph1.6 kmh 29.95 in1014.2 mb 0.00 in0.0 mm 0.00 in/hr0.0 mm/hr 1.16 in29.5 mm
01:00 PM 57.3°F14.1°C 55.8°F13.2°C 95% 0.2 mph NW0.3 kmh NW 1.0 mph1.6 kmh 29.94 in1013.9 mb 0.00 in0.0 mm 0.00 in/hr0.0 mm/hr 1.16 in29.5 mm
01:10 PM 57.3°F14.1°C 55.9°F13.3°C 95% 1.1 mph NW1.8 kmh NW 2.0 mph3.2 kmh 29.95 in1014.2 mb 0.00 in0.0 mm 0.00 in/hr0.0 mm/hr 1.16 in29.5 mm
01:20 PM 57.3°F14.1°C 55.9°F13.3°C 95% 0.4 mph NW0.6 kmh NW 3.0 mph4.8 kmh 29.95 in1014.2 mb 0.00 in0.0 mm 0.00 in/hr0.0 mm/hr 1.16 in29.5 mm
01:30 PM 57.3°F14.1°C 55.9°F13.3°C 95% Calm Calm -- 29.95 in1014.2 mb 0.02 in0.5 mm 0.12 in/hr3.0 mm/hr 1.17 in29.7 mm
01:40 PM 57.4°F14.1°C 55.9°F13.3°C 95% 1.1 mph NNE1.8 kmh NNE 2.0 mph3.2 kmh 29.95 in1014.2 mb 0.04 in1.0 mm 0.24 in/hr6.1 mm/hr 1.22 in31.0 mm
01:50 PM 57.5°F14.2°C 56.1°F13.4°C 95% 2.7 mph N4.3 kmh N 5.0 mph8.0 kmh 29.95 in1014.2 mb 0.04 in1.0 mm 0.24 in/hr6.1 mm/hr 1.25 in31.8 mm
02:00 PM 57.5°F14.2°C 56.1°F13.4°C 95% 4.8 mph NNE7.7 kmh NNE 9.0 mph14.5 kmh 29.95 in1014.2 mb 0.02 in0.5 mm 0.02 in/hr0.5 mm/hr 1.28 in32.5 mm
02:10 PM 57.6°F14.2°C 56.2°F13.4°C 95% 2.8 mph N4.5 kmh N 3.0 mph4.8 kmh 29.95 in1014.2 mb 0.03 in0.8 mm 0.18 in/hr4.6 mm/hr 1.31 in33.3 mm
02:20 PM 57.7°F14.3°C 56.3°F13.5°C 95% 2.9 mph NNW4.7 kmh NNW 5.0 mph8.0 kmh 29.95 in1014.2 mb 0.04 in1.0 mm 0.24 in/hr6.1 mm/hr 1.35 in34.3 mm
02:30 PM 57.7°F14.3°C 56.3°F13.5°C 95% 5.1 mph N8.2 kmh N 8.0 mph12.9 kmh 29.95 in1014.2 mb 0.02 in0.5 mm 0.12 in/hr3.0 mm/hr 1.36 in34.5 mm
02:40 PM 57.8°F14.3°C 56.4°F13.6°C 95% 5.2 mph NNW8.4 kmh NNW 6.0 mph9.7 kmh 29.95 in1014.2 mb 0.03 in0.8 mm 0.18 in/hr4.6 mm/hr 1.39 in35.3 mm
02:50 PM 57.7°F14.3°C 56.3°F13.5°C 95% 5.0 mph N8.0 kmh N 9.0 mph14.5 kmh 29.95 in1014.2 mb 0.04 in1.0 mm 0.24 in/hr6.1 mm/hr 1.43 in36.3 mm
03:00 PM 57.7°F14.3°C 56.3°F13.5°C 95% 5.8 mph N9.3 kmh N 10.0 mph16.1 kmh 29.95 in1014.2 mb 0.02 in0.5 mm 0.02 in/hr0.5 mm/hr 1.44 in36.6 mm
03:10 PM 57.8°F14.3°C 56.3°F13.5°C 95% 3.2 mph NNW5.1 kmh NNW 5.0 mph8.0 kmh 29.95 in1014.2 mb 0.02 in0.5 mm 0.12 in/hr3.0 mm/hr 1.46 in37.1 mm
03:20 PM 57.9°F14.4°C 56.5°F13.6°C 95% 5.2 mph NNW8.4 kmh NNW 11.0 mph17.7 kmh 29.95 in1014.2 mb 0.02 in0.5 mm 0.12 in/hr3.0 mm/hr 1.47 in37.3 mm
03:30 PM 57.8°F14.3°C 56.4°F13.6°C 95% 1.6 mph NNW2.6 kmh NNW 6.0 mph9.7 kmh 29.95 in1014.2 mb 0.02 in0.5 mm 0.12 in/hr3.0 mm/hr 1.49 in37.8 mm
03:40 PM 57.8°F14.3°C 56.4°F13.6°C 95% 2.6 mph NNW4.2 kmh NNW 9.0 mph14.5 kmh 29.95 in1014.2 mb 0.01 in0.3 mm 0.06 in/hr1.5 mm/hr 1.50 in38.1 mm
03:50 PM 57.8°F14.3°C 56.4°F13.6°C 95% 3.4 mph NNW5.5 kmh NNW 6.0 mph9.7 kmh 29.95 in1014.2 mb 0.01 in0.3 mm 0.06 in/hr1.5 mm/hr 1.50 in38.1 mm
04:00 PM 57.9°F14.4°C 56.5°F13.6°C 95% 4.2 mph NNW6.8 kmh NNW 5.0 mph8.0 kmh 29.95 in1014.2 mb 0.01 in0.3 mm 0.01 in/hr0.3 mm/hr 1.51 in38.4 mm
04:10 PM 58.0°F14.4°C 56.3°F13.5°C 94% 3.6 mph NNW5.8 kmh NNW 6.0 mph9.7 kmh 29.95 in1014.2 mb 0.01 in0.3 mm 0.06 in/hr1.5 mm/hr 1.52 in38.6 mm
04:20 PM 58.1°F14.5°C 56.3°F13.5°C 94% 7.3 mph NNW11.7 kmh NNW 9.0 mph14.5 kmh 29.95 in1014.2 mb 0.01 in0.3 mm 0.06 in/hr1.5 mm/hr 1.53 in38.9 mm
04:30 PM 58.1°F14.5°C 56.4°F13.6°C 94% 4.3 mph NNW6.9 kmh NNW 6.0 mph9.7 kmh 29.95 in1014.2 mb 0.01 in0.3 mm 0.06 in/hr1.5 mm/hr 1.54 in39.1 mm
04:40 PM 58.1°F14.5°C 56.4°F13.6°C 94% 2.7 mph NNW4.3 kmh NNW 3.0 mph4.8 kmh 29.96 in1014.6 mb 0.01 in0.3 mm 0.06 in/hr1.5 mm/hr 1.54 in39.1 mm
04:50 PM 58.1°F14.5°C 56.4°F13.6°C 94% 1.9 mph NNE3.1 kmh NNE 3.0 mph4.8 kmh 29.96 in1014.6 mb 0.01 in0.3 mm 0.06 in/hr1.5 mm/hr 1.55 in39.4 mm
05:00 PM 58.1°F14.5°C 56.4°F13.6°C 94% 5.6 mph NNW9.0 kmh NNW 9.0 mph14.5 kmh 29.96 in1014.6 mb 0.02 in0.5 mm 0.02 in/hr0.5 mm/hr 1.57 in39.9 mm
05:10 PM 58.1°F14.5°C 56.4°F13.6°C 94% 7.6 mph NW12.2 kmh NW 9.0 mph14.5 kmh 29.95 in1014.2 mb 0.01 in0.3 mm 0.06 in/hr1.5 mm/hr 1.58 in40.1 mm
05:20 PM 58.1°F14.5°C 56.4°F13.6°C 94% 5.4 mph NNW8.7 kmh NNW 8.0 mph12.9 kmh 29.95 in1014.2 mb 0.01 in0.3 mm 0.06 in/hr1.5 mm/hr 1.58 in40.1 mm
05:30 PM 58.2°F14.6°C 56.5°F13.6°C 94% 1.6 mph NW2.6 kmh NW 3.0 mph4.8 kmh 29.95 in1014.2 mb 0.01 in0.3 mm 0.06 in/hr1.5 mm/hr 1.59 in40.4 mm
05:40 PM 58.2°F14.6°C 56.8°F13.8°C 95% 1.7 mph NW2.7 kmh NW 3.0 mph4.8 kmh 29.95 in1014.2 mb 0.01 in0.3 mm 0.06 in/hr1.5 mm/hr 1.60 in40.6 mm
05:50 PM 58.1°F14.5°C 56.7°F13.7°C 95% 2.5 mph NW4.0 kmh NW 5.0 mph8.0 kmh 29.96 in1014.6 mb 0.01 in0.3 mm 0.06 in/hr1.5 mm/hr 1.61 in40.9 mm
06:00 PM 58.0°F14.4°C 56.6°F13.7°C 95% 3.3 mph WNW5.3 kmh WNW 5.0 mph8.0 kmh 29.96 in1014.6 mb 0.00 in0.0 mm 0.00 in/hr0.0 mm/hr 1.61 in40.9 mm
06:10 PM 57.9°F14.4°C 56.5°F13.6°C 95% 2.6 mph NW4.2 kmh NW 6.0 mph9.7 kmh 29.96 in1014.6 mb 0.01 in0.3 mm 0.06 in/hr1.5 mm/hr 1.61 in40.9 mm
06:20 PM 57.9°F14.4°C 56.5°F13.6°C 95% 3.9 mph NW6.3 kmh NW 5.0 mph8.0 kmh 29.96 in1014.6 mb 0.00 in0.0 mm 0.00 in/hr0.0 mm/hr 1.61 in40.9 mm
06:30 PM 57.8°F14.3°C 56.4°F13.6°C 95% 4.0 mph NW6.4 kmh NW 7.0 mph11.3 kmh 29.96 in1014.6 mb 0.01 in0.3 mm 0.06 in/hr1.5 mm/hr 1.62 in41.1 mm
06:50 PM 57.7°F14.3°C 56.3°F13.5°C 95% 5.3 mph NNW8.5 kmh NNW 9.0 mph14.5 kmh 29.97 in1014.9 mb 0.04 in1.0 mm 0.12 in/hr3.0 mm/hr 1.66 in42.2 mm
07:10 PM 57.6°F14.2°C 56.2°F13.4°C 95% 3.6 mph NW5.8 kmh NW 5.0 mph8.0 kmh 29.97 in1014.9 mb 0.05 in1.3 mm 0.08 in/hr2.0 mm/hr 1.71 in43.4 mm
07:20 PM 57.5°F14.2°C 56.1°F13.4°C 95% 3.3 mph NW5.3 kmh NW 5.0 mph8.0 kmh 29.97 in1014.9 mb 0.02 in0.5 mm 0.12 in/hr3.0 mm/hr 1.73 in43.9 mm
07:30 PM 57.5°F14.2°C 56.1°F13.4°C 95% 3.6 mph N5.8 kmh N 8.0 mph12.9 kmh 29.97 in1014.9 mb 0.01 in0.3 mm 0.06 in/hr1.5 mm/hr 1.74 in44.2 mm
07:40 PM 57.6°F14.2°C 56.2°F13.4°C 95% 2.7 mph NW4.3 kmh NW 5.0 mph8.0 kmh 29.98 in1015.2 mb 0.01 in0.3 mm 0.06 in/hr1.5 mm/hr 1.75 in44.5 mm
07:50 PM 57.5°F14.2°C 56.1°F13.4°C 95% 1.5 mph NW2.4 kmh NW 4.0 mph6.4 kmh 29.98 in1015.2 mb 0.02 in0.5 mm 0.12 in/hr3.0 mm/hr 1.76 in44.7 mm
08:00 PM 57.5°F14.2°C 56.1°F13.4°C 95% 1.6 mph NNW2.6 kmh NNW 2.0 mph3.2 kmh 29.98 in1015.2 mb 0.02 in0.5 mm 0.02 in/hr0.5 mm/hr 1.78 in45.2 mm
08:10 PM 57.5°F14.2°C 56.1°F13.4°C 95% 1.1 mph NNW1.8 kmh NNW 2.0 mph3.2 kmh 29.98 in1015.2 mb 0.03 in0.8 mm 0.18 in/hr4.6 mm/hr 1.80 in45.7 mm
08:20 PM 57.5°F14.2°C 56.1°F13.4°C 95% 1.0 mph NW1.6 kmh NW 2.0 mph3.2 kmh 29.99 in1015.6 mb 0.02 in0.5 mm 0.12 in/hr3.0 mm/hr 1.81 in46.0 mm
08:30 PM 57.5°F14.2°C 56.4°F13.6°C 96% 0.1 mph NW0.2 kmh NW 1.0 mph1.6 kmh 29.99 in1015.6 mb 0.04 in1.0 mm 0.24 in/hr6.1 mm/hr 1.85 in47.0 mm
08:40 PM 57.4°F14.1°C 56.3°F13.5°C 96% 2.8 mph NW4.5 kmh NW 5.0 mph8.0 kmh 29.98 in1015.2 mb 0.06 in1.5 mm 0.36 in/hr9.1 mm/hr 1.91 in48.5 mm
08:50 PM 57.4°F14.1°C 56.3°F13.5°C 96% 1.0 mph NW1.6 kmh NW 2.0 mph3.2 kmh 29.98 in1015.2 mb 0.05 in1.3 mm 0.30 in/hr7.6 mm/hr 1.95 in49.5 mm
09:00 PM 57.3°F14.1°C 56.2°F13.4°C 96% 0.5 mph NW0.8 kmh NW 3.0 mph4.8 kmh 29.98 in1015.2 mb 0.02 in0.5 mm 0.02 in/hr0.5 mm/hr 1.96 in49.8 mm
09:10 PM 57.3°F14.1°C 56.2°F13.4°C 96% 3.2 mph NW5.1 kmh NW 5.0 mph8.0 kmh 29.98 in1015.2 mb 0.01 in0.3 mm 0.06 in/hr1.5 mm/hr 1.97 in50.0 mm
09:20 PM 57.1°F13.9°C 56.0°F13.3°C 96% 2.5 mph W4.0 kmh W 5.0 mph8.0 kmh 29.98 in1015.2 mb 0.01 in0.3 mm 0.06 in/hr1.5 mm/hr 1.98 in50.3 mm
09:30 PM 57.0°F13.9°C 55.9°F13.3°C 96% 5.6 mph NW9.0 kmh NW 10.0 mph16.1 kmh 29.98 in1015.2 mb 0.00 in0.0 mm 0.00 in/hr0.0 mm/hr 1.98 in50.3 mm
09:40 PM 57.0°F13.9°C 55.8°F13.2°C 96% 3.3 mph NW5.3 kmh NW 7.0 mph11.3 kmh 29.97 in1014.9 mb 0.00 in0.0 mm 0.00 in/hr0.0 mm/hr 1.98 in50.3 mm
09:50 PM 56.9°F13.8°C 55.8°F13.2°C 96% 2.5 mph NW4.0 kmh NW 5.0 mph8.0 kmh 29.98 in1015.2 mb 0.00 in0.0 mm 0.00 in/hr0.0 mm/hr 1.98 in50.3 mm
10:00 PM 56.9°F13.8°C 55.8°F13.2°C 96% 2.9 mph NW4.7 kmh NW 5.0 mph8.0 kmh 29.98 in1015.2 mb 0.00 in0.0 mm 0.00 in/hr0.0 mm/hr 1.98 in50.3 mm
10:20 PM 56.8°F13.8°C 55.7°F13.2°C 96% 0.3 mph WNW0.5 kmh WNW 3.0 mph4.8 kmh 29.98 in1015.2 mb 0.00 in0.0 mm 0.00 in/hr0.0 mm/hr 1.98 in50.3 mm
10:30 PM 56.8°F13.8°C 55.7°F13.2°C 96% 0.6 mph WNW1.0 kmh WNW 3.0 mph4.8 kmh 29.98 in1015.2 mb 0.00 in0.0 mm 0.00 in/hr0.0 mm/hr 1.98 in50.3 mm
10:50 PM 56.7°F13.7°C 55.6°F13.1°C 96% 2.9 mph NW4.7 kmh NW 7.0 mph11.3 kmh 29.98 in1015.2 mb 0.01 in0.3 mm 0.03 in/hr0.8 mm/hr 1.99 in50.5 mm
11:01 PM 56.6°F13.7°C 55.5°F13.1°C 96% 2.1 mph WNW3.4 kmh WNW 4.0 mph6.4 kmh 29.98 in1015.2 mb 0.07 in1.8 mm 0.09 in/hr2.3 mm/hr 2.22 in56.4 mm
11:10 PM 56.5°F13.6°C 55.4°F13.0°C 96% 3.7 mph W6.0 kmh W 8.0 mph12.9 kmh 29.97 in1014.9 mb 0.02 in0.5 mm 0.13 in/hr3.3 mm/hr 0.02 in0.5 mm
11:20 PM 56.4°F13.6°C 55.3°F12.9°C 96% 1.6 mph NW2.6 kmh NW 3.0 mph4.8 kmh 29.97 in1014.9 mb 0.00 in0.0 mm 0.00 in/hr0.0 mm/hr 0.02 in0.5 mm
11:30 PM 56.4°F13.6°C 55.3°F12.9°C 96% 1.9 mph NW3.1 kmh NW 4.0 mph6.4 kmh 29.97 in1014.9 mb 0.01 in0.3 mm 0.06 in/hr1.5 mm/hr 0.03 in0.8 mm
11:40 PM 56.4°F13.6°C 55.3°F12.9°C 96% 3.6 mph NW5.8 kmh NW 5.0 mph8.0 kmh 29.97 in1014.9 mb 0.00 in0.0 mm 0.00 in/hr0.0 mm/hr 0.03 in0.8 mm
11:50 PM 56.4°F13.6°C 55.3°F12.9°C 96% 1.4 mph W2.3 kmh W 5.0 mph8.0 kmh 29.97 in1014.9 mb 0.00 in0.0 mm 0.00 in/hr0.0 mm/hr 0.03 in0.8 mm